Time;durP1;ratioP1;P1;durP2;ratioP2;P2;SDS_P1;SDS_P2;PMS_P1;PMS_P2;Temp;Humidity;BMP_temperature;BMP_pressure;BME280_temperature;BME280_humidity;BME280_pressure;Samples;Min_cycle;Max_cycle;Signal;HPM_P1;HPM_P2
2021/06/02 00:01:56;;;;;;;1.30;1.20;;;21.50;42.70;;;25.19;28.72;101551.34;5132578;27;20051;-63
2021/06/02 00:04:33;;;;;;;1.08;0.90;;;21.40;42.60;;;25.18;28.88;101544.28;5099045;28;20107;-63
2021/06/02 00:07:04;;;;;;;1.08;1.08;;;21.40;42.70;;;25.14;29.00;101538.31;5133037;28;20055;-63
2021/06/02 00:09:30;;;;;;;1.20;1.10;;;21.40;42.70;;;25.17;28.88;101547.91;5115783;28;20047;-63
2021/06/02 00:11:59;;;;;;;1.13;1.13;;;21.40;42.70;;;25.16;28.80;101543.56;5081850;28;20054;-63
2021/06/02 00:14:27;;;;;;;1.17;1.08;;;21.40;42.80;;;25.17;28.72;101552.44;5115624;28;20075;-62
2021/06/02 00:16:54;;;;;;;1.13;1.13;;;21.40;42.80;;;25.12;28.93;101539.34;5132478;28;20054;-62
2021/06/02 00:19:22;;;;;;;0.82;0.82;;;21.40;42.90;;;25.12;28.82;101548.22;5132670;28;20043;-63
2021/06/02 00:21:48;;;;;;;1.08;1.08;;;21.30;42.80;;;25.11;28.92;101538.50;5115451;28;20043;-63
2021/06/02 00:24:14;;;;;;;1.50;1.20;;;21.30;42.90;;;25.12;28.72;101553.59;5115470;28;20501;-63
2021/06/02 00:26:41;;;;;;;1.10;0.90;;;21.30;42.90;;;25.08;29.01;101541.38;5134576;27;20055;-63
2021/06/02 00:29:08;;;;;;;0.80;0.80;;;21.30;42.90;;;25.08;28.91;101536.03;5115520;28;20086;-63
2021/06/02 00:31:38;;;;;;;0.95;0.95;;;21.30;43.00;;;25.09;29.01;101550.25;5115516;28;20050;-63
2021/06/02 00:34:06;;;;;;;1.27;1.17;;;21.30;43.00;;;25.03;29.07;101529.31;5115730;28;20039;-63
2021/06/02 00:36:32;;;;;;;1.05;0.90;;;21.30;43.00;;;25.04;28.95;101537.22;5098172;28;20101;-63
2021/06/02 00:38:58;;;;;;;0.90;0.90;;;21.20;43.00;;;25.07;28.86;101544.16;5115362;28;20092;-63
2021/06/02 00:41:25;;;;;;;1.27;0.95;;;21.20;43.00;;;25.03;29.13;101540.84;5115575;28;20055;-63
2021/06/02 00:43:51;;;;;;;1.05;0.93;;;21.20;43.10;;;24.96;29.13;101532.38;5132423;28;20043;-63
2021/06/02 00:46:20;;;;;;;1.08;0.98;;;21.20;43.10;;;25.00;29.13;101551.75;5132417;28;20070;-62
2021/06/02 00:48:46;;;;;;;1.00;0.90;;;21.20;43.20;;;24.97;29.10;101543.94;5114975;28;20496;-63
2021/06/02 00:51:13;;;;;;;1.75;1.10;;;21.20;43.20;;;24.99;29.07;101544.69;5132425;28;20100;-63
2021/06/02 00:53:39;;;;;;;0.80;0.80;;;21.20;43.20;;;24.98;29.18;101551.00;5132579;28;20054;-63
2021/06/02 00:56:07;;;;;;;1.00;1.00;;;21.20;43.20;;;24.95;29.21;101544.03;5115132;28;20111;-63
2021/06/02 00:58:47;;;;;;;1.38;1.27;;;21.20;43.30;;;24.93;29.16;101554.00;5131998;28;20055;-63
2021/06/02 01:01:14;;;;;;;1.75;1.25;;;21.20;43.30;;;24.94;29.10;101552.16;5115107;28;20043;-63
2021/06/02 01:03:41;;;;;;;1.58;1.23;;;21.10;43.30;;;24.90;29.12;101539.97;5115136;28;20437;-63
2021/06/02 01:06:08;;;;;;;0.88;0.88;;;21.10;43.30;;;24.92;29.36;101549.59;5132413;28;20043;-63
2021/06/02 01:08:36;;;;;;;0.98;0.98;;;21.20;43.40;;;24.92;29.22;101549.59;5114910;28;20039;-63
2021/06/02 01:11:03;;;;;;;1.27;1.15;;;21.10;43.40;;;24.90;29.28;101554.19;5115252;28;20486;-63
2021/06/02 01:13:30;;;;;;;1.05;0.95;;;21.10;43.40;;;24.86;29.19;101547.34;5116059;28;20418;-62
2021/06/02 01:15:56;;;;;;;1.00;0.95;;;21.10;43.40;;;24.88;29.43;101552.59;5131636;28;20130;-63
2021/06/02 01:18:22;;;;;;;1.08;0.98;;;21.10;43.40;;;24.85;29.35;101556.34;5101359;28;20055;-63
2021/06/02 01:20:49;;;;;;;1.20;1.10;;;21.10;43.50;;;24.87;29.21;101554.41;5136090;28;20359;-63
2021/06/02 01:23:16;;;;;;;1.10;1.05;;;21.10;43.50;;;24.86;29.42;101557.19;5135573;27;20047;-63
2021/06/02 01:25:43;;;;;;;1.20;1.10;;;21.10;43.50;;;24.85;29.35;101552.81;5135717;28;20047;-63
2021/06/02 01:28:10;;;;;;;0.80;0.80;;;21.00;43.50;;;24.80;29.41;101542.41;5118216;28;20486;-63
2021/06/02 01:30:36;;;;;;;1.20;1.10;;;21.00;43.60;;;24.81;29.35;101546.81;5135335;27;20546;-63
2021/06/02 01:33:33;;;;;;;1.25;1.17;;;21.00;43.60;;;24.80;29.40;101552.25;5135496;28;20047;-63
2021/06/02 01:36:09;;;;;;;1.30;1.20;;;21.00;43.60;;;24.78;29.36;101557.72;5118235;28;20070;-63
2021/06/02 01:39:00;;;;;;;2.15;1.10;;;21.00;43.70;;;24.77;29.37;101559.53;5118086;28;20069;-63
2021/06/02 01:42:07;;;;;;;1.13;1.10;;;20.90;43.60;;;24.78;29.37;101560.38;5118110;28;20095;-63
2021/06/02 01:45:08;;;;;;;1.00;1.00;;;20.90;43.70;;;24.74;29.41;101557.06;5135042;27;20146;-63
2021/06/02 01:48:24;;;;;;;1.33;0.83;;;20.90;43.70;;;24.78;29.33;101555.88;5101329;28;20047;-63
2021/06/02 01:51:27;;;;;;;1.10;1.10;;;20.90;43.70;;;24.75;29.50;101553.41;5135124;28;20054;-64
2021/06/02 01:54:36;;;;;;;1.10;0.95;;;20.90;43.80;;;24.72;29.37;101560.78;5118084;28;20081;-63
2021/06/02 01:57:25;;;;;;;1.35;1.00;;;20.90;43.80;;;24.68;29.57;101552.13;5135357;27;20051;-63
2021/06/02 02:00:05;;;;;;;1.13;1.10;;;20.90;43.90;;;24.67;29.55;101552.22;5100595;28;20047;-63
2021/06/02 02:03:36;;;;;;;1.30;1.20;;;20.90;43.90;;;24.68;29.52;101557.47;5119294;28;20482;-63
2021/06/02 02:06:44;;;;;;;1.48;1.38;;;20.90;44.00;;;24.60;29.53;101552.63;5135147;27;20471;-63
2021/06/02 02:09:30;;;;;;;1.45;1.35;;;20.80;43.90;;;24.65;29.61;101564.84;5136452;28;20043;-63
2021/06/02 02:12:15;;;;;;;1.10;1.00;;;20.80;43.90;;;24.57;29.53;101552.84;5117817;28;20047;-63
2021/06/02 02:14:49;;;;;;;1.23;1.13;;;20.80;43.90;;;24.62;29.56;101557.03;5117611;28;20090;-63
2021/06/02 02:17:46;;;;;;;1.27;1.10;;;20.80;44.00;;;24.60;29.60;101552.63;5134536;28;20495;-62
2021/06/02 02:20:38;;;;;;;1.83;1.20;;;20.80;44.00;;;24.58;29.68;101557.22;5117980;28;20046;-63
2021/06/02 02:23:38;;;;;;;;;;;20.80;44.00;;;24.72;29.49;101558.13;5135120;28;20100;-63
2021/06/02 02:26:29;;;;;;;1.13;1.00;;;20.80;44.00;;;24.59;29.71;101560.75;5100073;28;19915;-63
2021/06/02 02:29:19;;;;;;;1.30;1.17;;;20.80;44.10;;;24.57;29.74;101552.84;5135007;27;20078;-63
2021/06/02 02:32:48;;;;;;;1.63;1.00;;;20.80;44.10;;;24.57;29.60;101557.31;5117710;28;20047;-63
2021/06/02 02:35:55;;;;;;;1.00;1.00;;;20.80;44.20;;;24.53;29.89;101558.47;5108512;28;20043;-63
2021/06/02 02:38:59;;;;;;;1.05;0.98;;;20.80;44.10;;;24.51;29.83;101550.53;5129036;28;20489;-63
2021/06/02 02:42:00;;;;;;;1.20;1.10;;;20.70;44.10;;;24.49;29.90;101560.50;5134400;28;20039;-63
2021/06/02 02:44:49;;;;;;;1.02;0.90;;;20.70;44.20;;;24.47;29.87;101564.22;5117035;28;20051;-63
2021/06/02 02:47:27;;;;;;;1.30;1.20;;;20.70;44.20;;;24.41;30.01;101558.31;5099991;28;20103;-63
2021/06/02 02:50:22;;;;;;;1.20;1.00;;;20.70;44.20;;;24.43;29.87;101568.91;5099866;28;20099;-63
2021/06/02 02:53:05;;;;;;;1.13;1.00;;;20.70;44.30;;;24.39;29.98;101565.56;5117022;28;20068;-63
2021/06/02 02:55:34;;;;;;;1.20;1.00;;;20.70;44.30;;;24.42;30.04;101562.72;5117319;28;20075;-63
2021/06/02 02:58:30;;;;;;;0.88;0.88;;;20.70;44.30;;;24.34;29.84;101570.38;5134098;28;20053;-63
2021/06/02 03:01:13;;;;;;;1.75;1.25;;;20.60;44.40;;;24.36;30.02;101573.78;5117012;28;20130;-63
2021/06/02 03:03:56;;;;;;;2.40;1.20;;;20.60;44.40;;;24.36;30.13;101576.47;5134568;28;20520;-63
2021/06/02 03:06:33;;;;;;;1.20;1.10;;;20.60;44.40;;;24.36;30.11;101578.28;5116875;28;20071;-63
2021/06/02 03:09:29;;;;;;;1.00;0.98;;;20.60;44.40;;;24.36;30.13;101578.28;5133801;28;20051;-63
2021/06/02 03:12:31;;;;;;;1.27;1.08;;;20.60;44.40;;;24.34;30.03;101574.84;5116959;28;20138;-63
2021/06/02 03:15:09;;;;;;;1.38;1.27;;;20.60;44.40;;;24.31;30.11;101572.38;5116243;28;20086;-63
2021/06/02 03:18:09;;;;;;;1.15;1.05;;;20.60;44.40;;;24.37;30.25;101571.97;5116945;28;20460;-64
2021/06/02 03:21:14;;;;;;;2.40;0.95;;;20.60;44.40;;;24.36;30.02;101576.47;5116441;28;20043;-63
2021/06/02 03:24:10;;;;;;;1.27;1.02;;;20.60;44.30;;;24.38;30.16;101585.22;5125653;28;20592;-63
2021/06/02 03:26:43;;;;;;;1.35;1.25;;;20.60;44.30;;;24.36;29.85;101576.47;5135113;27;20390;-63
2021/06/02 03:29:42;;;;;;;0.98;0.90;;;20.70;44.40;;;24.36;30.10;101581.81;5133553;28;20436;-63
2021/06/02 03:32:29;;;;;;;1.10;1.00;;;20.70;44.40;;;24.41;29.86;101586.88;5123094;28;20547;-63
2021/06/02 03:35:07;;;;;;;1.33;1.23;;;20.70;44.30;;;24.41;29.94;101584.19;5116152;28;20497;-63
2021/06/02 03:37:59;;;;;;;1.00;1.00;;;20.70;44.30;;;24.40;29.89;101580.63;5115285;28;20043;-63
2021/06/02 03:41:11;;;;;;;1.20;1.10;;;20.70;44.30;;;24.39;30.08;101578.94;5116260;28;20120;-63
2021/06/02 03:43:48;;;;;;;0.98;0.98;;;20.70;44.40;;;24.33;30.16;101575.81;5134968;28;20077;-63
2021/06/02 03:46:42;;;;;;;0.95;0.90;;;20.70;44.30;;;24.38;30.18;101587.06;5116046;28;20059;-64
2021/06/02 03:50:01;;;;;;;1.50;1.00;;;20.70;44.30;;;24.41;30.09;101586.88;5133235;28;20145;-63
2021/06/02 03:53:16;;;;;;;1.15;1.10;;;20.70;44.30;;;24.36;30.30;101580.97;5133480;28;20057;-64
2021/06/02 03:56:19;;;;;;;1.30;1.00;;;20.70;44.30;;;24.39;30.26;101586.09;5133101;28;20482;-63
2021/06/02 03:59:38;;;;;;;0.95;0.95;;;20.70;44.30;;;24.44;30.18;101591.13;5098802;28;20115;-63
2021/06/02 04:02:17;;;;;;;0.70;0.70;;;20.80;44.30;;;24.49;30.04;101594.38;5098938;28;20531;-63
2021/06/02 04:05:31;;;;;;;1.10;1.00;;;20.80;44.10;;;24.58;29.91;101599.16;5116413;28;20043;-63
2021/06/02 04:08:16;;;;;;;1.30;1.20;;;20.90;44.10;;;24.57;29.75;101605.44;5112341;28;20547;-63
2021/06/02 04:11:29;;;;;;;1.10;1.00;;;20.90;43.90;;;24.59;29.92;101607.06;5115835;28;20398;-64
2021/06/02 04:14:07;;;;;;;1.40;1.10;;;20.90;43.90;;;24.55;29.68;101594.00;5132821;27;20459;-63
2021/06/02 04:16:40;;;;;;;0.90;0.90;;;20.90;43.80;;;24.59;29.73;101604.41;5132769;28;20058;-63
2021/06/02 04:19:15;;;;;;;1.00;0.90;;;20.90;43.80;;;24.62;29.76;101600.66;5132765;28;20584;-63
2021/06/02 04:21:44;;;;;;;0.90;0.90;;;21.00;43.90;;;24.68;29.83;101602.94;5132836;28;20089;-63
2021/06/02 04:24:18;;;;;;;1.20;1.10;;;21.10;43.80;;;24.75;29.62;101609.56;5098892;28;20055;-62
2021/06/02 04:26:46;;;;;;;0.98;0.98;;;21.10;43.70;;;24.82;29.73;101604.69;5132950;28;20513;-63
2021/06/02 04:29:14;;;;;;;1.00;1.00;;;21.20;43.50;;;24.87;29.58;101605.22;5115267;28;20379;-63
2021/06/02 04:31:59;;;;;;;1.40;1.05;;;21.20;43.40;;;24.92;29.34;101602.25;5132598;28;20047;-63
2021/06/02 04:34:27;;;;;;;0.85;0.85;;;21.20;43.50;;;24.92;29.35;101600.41;5133994;27;20478;-63
2021/06/02 04:36:55;;;;;;;0.90;0.90;;;21.30;43.30;;;24.95;29.60;101604.72;5115102;28;20089;-63
2021/06/02 04:39:23;;;;;;;1.77;1.08;;;21.20;43.30;;;24.94;29.30;101603.88;5132649;28;20047;-63
2021/06/02 04:41:54;;;;;;;0.95;0.88;;;21.20;43.40;;;24.93;29.42;101609.31;5115313;28;20054;-62
2021/06/02 04:44:23;;;;;;;1.45;0.98;;;21.20;43.40;;;24.95;29.41;101607.41;5133877;27;20050;-62
2021/06/02 04:46:50;;;;;;;1.20;1.10;;;21.20;43.50;;;24.93;29.26;101599.47;5132295;27;20514;-63
2021/06/02 04:49:16;;;;;;;1.48;1.10;;;21.20;43.50;;;24.95;29.30;101613.59;5114797;28;20054;-62
2021/06/02 04:51:42;;;;;;;0.93;0.93;;;21.20;43.40;;;24.95;29.41;101607.41;5132618;28;20078;-62
2021/06/02 04:54:47;;;;;;;1.08;0.85;;;21.20;43.50;;;24.93;29.50;101620.88;5132258;28;20085;-63
2021/06/02 04:58:08;;;;;;;1.15;1.05;;;21.20;43.50;;;24.93;29.51;101615.53;5111270;28;20043;-63
2021/06/02 05:01:07;;;;;;;0.90;0.90;;;21.20;43.50;;;24.88;29.54;101612.31;5115256;28;20087;-63
2021/06/02 05:04:29;;;;;;;0.90;0.90;;;21.10;43.40;;;24.92;29.37;101626.31;5132164;27;20043;-62
2021/06/02 05:07:31;;;;;;;0.95;0.95;;;21.20;43.60;;;24.95;29.42;101626.97;5133729;28;20541;-62
2021/06/02 05:10:51;;;;;;;1.05;1.05;;;21.30;43.60;;;25.05;29.27;101621.03;5115412;28;20054;-62
2021/06/02 05:14:07;;;;;;;1.65;0.95;;;21.30;43.40;;;25.15;29.37;101633.66;5133376;28;20035;-62
2021/06/02 05:17:12;;;;;;;1.05;0.90;;;21.40;43.30;;;25.19;29.17;101620.91;5097935;28;20043;-62
2021/06/02 05:20:26;;;;;;;1.77;1.00;;;21.50;43.20;;;25.30;29.10;101626.44;5133207;28;20135;-63
2021/06/02 05:23:45;;;;;;;1.00;1.00;;;21.60;43.10;;;25.42;29.05;101639.94;5115336;28;20047;-63
2021/06/02 05:27:03;;;;;;;1.17;1.08;;;21.60;42.90;;;25.45;28.96;101632.56;5131754;27;20189;-62
2021/06/02 05:30:08;;;;;;;1.10;1.00;;;21.60;42.80;;;25.49;28.81;101643.91;5132431;27;20047;-63
2021/06/02 05:33:15;;;;;;;0.85;0.82;;;21.70;42.90;;;25.48;28.95;101636.88;5098176;28;20054;-62
2021/06/02 05:36:21;;;;;;;0.90;0.90;;;21.70;42.80;;;25.52;28.82;101635.66;5132089;28;20433;-63
2021/06/02 05:39:09;;;;;;;2.72;1.13;;;21.70;42.80;;;25.62;28.73;101635.91;5131711;28;20047;-63
2021/06/02 05:41:57;;;;;;;1.02;0.90;;;21.80;42.80;;;25.62;28.76;101638.56;5133022;27;20047;-63
2021/06/02 05:45:09;;;;;;;1.00;1.00;;;21.90;42.70;;;25.75;28.53;101642.09;5114437;28;20490;-63
2021/06/02 05:48:18;;;;;;;0.95;0.90;;;21.90;42.60;;;25.79;28.51;101646.28;5132747;28;20379;-63
2021/06/02 05:51:35;;;;;;;2.00;0.90;;;21.90;42.50;;;25.84;28.56;101637.91;5114344;28;20059;-63
2021/06/02 05:54:36;;;;;;;1.10;1.00;;;22.00;42.40;;;25.92;28.47;101648.09;5114635;28;20051;-63
2021/06/02 05:57:26;;;;;;;1.20;1.10;;;22.10;42.30;;;25.97;28.39;101644.16;5073355;28;20051;-63
2021/06/02 06:00:22;;;;;;;1.30;0.95;;;22.10;42.30;;;26.00;28.36;101635.91;5132798;27;20115;-63
2021/06/02 06:03:24;;;;;;;0.80;0.80;;;22.20;42.20;;;26.09;28.29;101642.41;5118041;28;20046;-63
2021/06/02 06:06:11;;;;;;;1.00;1.00;;;22.20;42.10;;;26.10;28.29;101636.09;5135899;28;20058;-62
2021/06/02 06:09:17;;;;;;;1.65;0.95;;;22.30;42.00;;;26.21;28.08;101636.19;5117417;28;20106;-62
2021/06/02 06:12:13;;;;;;;1.23;0.90;;;22.40;42.00;;;26.28;28.07;101641.97;5134957;27;20073;-62
2021/06/02 06:15:00;;;;;;;1.13;1.02;;;22.40;41.90;;;26.35;28.03;101639.69;5135852;27;20107;-64
2021/06/02 06:18:12;;;;;;;1.00;0.68;;;22.50;41.80;;;26.43;27.98;101634.63;5134588;27;20047;-62
2021/06/02 06:21:08;;;;;;;2.60;1.20;;;22.50;41.60;;;26.45;27.89;101638.06;5134540;28;20047;-62
2021/06/02 06:23:51;;;;;;;2.60;0.90;;;22.60;41.60;;;26.50;27.56;101643.09;5134694;27;20418;-62
2021/06/02 06:26:39;;;;;;;0.93;0.93;;;22.60;41.50;;;26.54;27.75;101644.56;5117887;28;20125;-62
2021/06/02 06:29:50;;;;;;;1.42;0.95;;;22.70;41.40;;;26.62;27.70;101637.66;5134682;28;20047;-62
2021/06/02 06:32:17;;;;;;;1.40;1.00;;;22.70;41.30;;;26.60;27.65;101636.06;5117109;28;20072;-62
2021/06/02 06:34:46;;;;;;;1.63;0.98;;;22.70;41.30;;;26.62;27.63;101628.75;5116936;28;20447;-62
2021/06/02 06:37:13;;;;;;;1.23;0.90;;;22.80;41.30;;;26.70;27.74;101647.84;5133991;28;20488;-62
2021/06/02 06:39:54;;;;;;;1.42;1.17;;;22.80;41.30;;;26.74;27.60;101643.97;5117274;28;20072;-62
2021/06/02 06:42:25;;;;;;;1.10;1.00;;;22.90;41.40;;;26.82;27.40;101637.19;5117190;28;20062;-62
2021/06/02 06:44:56;;;;;;;1.20;1.08;;;22.90;41.70;;;26.83;27.48;101638.88;5135388;27;20134;-62
2021/06/02 06:47:23;;;;;;;1.30;1.20;;;23.00;41.10;;;26.87;27.31;101640.38;5133825;28;20387;-62
2021/06/02 06:49:55;;;;;;;1.30;0.88;;;23.00;41.00;;;26.94;27.27;101638.94;5134215;28;20054;-64
2021/06/02 06:52:26;;;;;;;0.90;0.80;;;23.10;40.90;;;26.96;27.35;101639.66;5117229;28;20422;-62
2021/06/02 06:54:57;;;;;;;1.00;0.90;;;23.10;40.80;;;27.04;27.14;101639.94;5116903;28;20079;-61
2021/06/02 06:57:23;;;;;;;1.85;1.20;;;23.20;40.70;;;27.10;27.29;101641.34;5116610;28;20047;-61
2021/06/02 06:59:51;;;;;;;1.00;0.95;;;23.20;40.70;;;27.14;27.09;101640.09;5117021;28;20039;-61
2021/06/02 07:02:17;;;;;;;2.03;0.70;;;23.20;40.60;;;27.20;26.96;101638.78;5116529;28;20058;-61
2021/06/02 07:04:44;;;;;;;1.40;1.23;;;23.30;40.50;;;27.16;27.11;101619.38;5116690;28;20055;-61
2021/06/02 07:07:10;;;;;;;1.80;1.25;;;23.30;40.40;;;27.21;27.16;101632.44;5116784;28;20046;-61
2021/06/02 07:09:37;;;;;;;1.15;1.05;;;23.30;40.70;;;27.22;27.03;101629.66;5099477;28;20043;-62
2021/06/02 07:12:03;;;;;;;1.25;1.10;;;23.30;41.10;;;27.25;27.17;101626.72;5117088;28;20390;-61
2021/06/02 07:14:30;;;;;;;1.00;1.00;;;23.30;40.50;;;27.30;26.81;101619.19;5099957;28;20074;-63
2021/06/02 07:17:04;;;;;;;1.38;1.15;;;23.40;40.40;;;27.35;26.79;101627.75;5116554;28;20047;-62
2021/06/02 07:19:32;;;;;;;1.73;1.00;;;23.40;40.40;;;27.34;26.76;101619.81;5117387;28;20039;-62
2021/06/02 07:22:00;;;;;;;0.82;0.73;;;23.40;40.30;;;27.38;26.85;101623.97;5116453;28;20047;-62
2021/06/02 07:24:27;;;;;;;1.17;1.08;;;23.40;40.30;;;27.40;26.93;101622.03;5099942;28;20047;-62
2021/06/02 07:26:53;;;;;;;1.00;0.90;;;23.50;40.30;;;27.45;26.87;101619.84;5116461;28;20047;-62
2021/06/02 07:29:19;;;;;;;0.80;0.80;;;23.50;40.40;;;27.44;26.80;101618.13;5116342;28;20047;-62
2021/06/02 07:31:45;;;;;;;1.33;0.80;;;23.50;40.20;;;27.48;26.93;101626.78;5116329;28;20054;-62
2021/06/02 07:34:11;;;;;;;1.95;1.50;;;23.50;40.20;;;27.48;26.93;101629.47;5133994;28;20043;-63
2021/06/02 07:36:37;;;;;;;1.55;1.10;;;23.50;40.20;;;27.48;26.66;101630.34;5116309;28;20107;-62
2021/06/02 07:39:05;;;;;;;5.28;1.17;;;23.50;40.30;;;27.55;26.88;101625.34;5116569;28;20047;-62
2021/06/02 07:41:31;;;;;;;1.08;0.85;;;23.60;40.40;;;27.62;26.72;101628.41;5116075;28;20046;-62
2021/06/02 07:43:56;;;;;;;1.42;0.98;;;23.70;40.70;;;27.66;26.83;101627.19;5116226;28;20039;-62
2021/06/02 07:46:22;;;;;;;1.08;0.95;;;23.70;40.10;;;27.68;26.56;101627.91;5133176;28;20146;-62
2021/06/02 07:48:50;;;;;;;0.90;0.90;;;23.70;40.10;;;27.66;26.69;101624.50;5098897;28;20112;-62
2021/06/02 07:51:16;;;;;;;1.70;0.95;;;23.70;40.10;;;27.67;26.52;101616.31;5116212;28;20483;-62
2021/06/02 07:53:42;;;;;;;1.10;1.00;;;23.70;40.00;;;27.68;26.59;101622.53;5116396;28;20045;-62
2021/06/02 07:56:08;;;;;;;1.08;0.98;;;23.70;40.20;;;27.68;26.58;101618.03;5115869;28;20051;-62
2021/06/02 07:58:34;;;;;;;1.17;1.00;;;23.70;40.00;;;27.70;26.42;101618.78;5115662;28;20451;-62
2021/06/02 08:00:59;;;;;;;0.93;0.80;;;23.70;40.00;;;27.75;26.64;101629.16;5133490;28;20390;-62
2021/06/02 08:03:25;;;;;;;1.20;1.10;;;23.70;39.80;;;27.76;26.58;101628.16;5134188;27;20039;-62
2021/06/02 08:05:51;;;;;;;1.10;1.00;;;23.80;39.90;;;27.79;26.56;101627.09;5115729;28;20055;-63
2021/06/02 08:08:17;;;;;;;1.08;0.98;;;23.80;40.10;;;27.78;26.22;101618.16;5134462;27;20065;-62
2021/06/02 08:10:43;;;;;;;1.10;1.00;;;23.80;39.70;;;27.75;26.47;101621.09;5115663;28;20039;-63
2021/06/02 08:13:09;;;;;;;1.10;1.00;;;23.70;39.80;;;27.71;26.40;101619.63;5132689;28;20069;-62
2021/06/02 08:15:34;;;;;;;1.00;1.00;;;23.70;39.80;;;27.68;26.51;101619.84;5115741;28;20126;-62
2021/06/02 08:18:02;;;;;;;0.98;0.95;;;23.70;39.90;;;27.67;26.53;101616.31;5115589;28;20081;-62
2021/06/02 08:20:29;;;;;;;0.80;0.80;;;23.70;39.90;;;27.67;26.43;101613.63;5115607;28;20394;-62
2021/06/02 08:22:55;;;;;;;1.33;1.23;;;23.70;39.90;;;27.67;26.49;101604.72;5115319;28;20393;-62
2021/06/02 08:25:20;;;;;;;0.70;0.70;;;23.80;39.90;;;27.72;26.40;101611.44;5115702;28;20047;-62
2021/06/02 08:27:47;;;;;;;2.70;1.00;;;23.80;40.30;;;27.72;26.35;101613.28;5132131;28;20051;-62
2021/06/02 08:30:14;;;;;;;1.60;0.90;;;23.80;40.10;;;27.75;26.53;101609.47;5132841;27;20171;-62
2021/06/02 08:32:41;;;;;;;2.20;0.93;;;23.80;39.70;;;27.76;26.67;101622.78;5115360;28;20457;-62
2021/06/02 08:35:11;;;;;;;1.20;1.10;;;23.80;40.20;;;27.76;26.44;101617.41;5115611;28;20054;-62
2021/06/02 08:37:38;;;;;;;1.10;1.02;;;23.80;39.70;;;27.75;26.40;101606.78;5133770;27;20043;-61
2021/06/02 08:40:06;;;;;;;0.77;0.70;;;23.80;39.70;;;27.79;26.25;101613.66;5115364;28;20061;-62
2021/06/02 08:42:34;;;;;;;1.02;0.90;;;23.80;39.80;;;27.76;26.27;101614.72;5132567;28;20058;-62
2021/06/02 08:45:00;;;;;;;1.42;0.75;;;23.80;39.70;;;27.74;26.43;101608.63;5115196;28;20043;-62
2021/06/02 08:47:26;;;;;;;0.93;0.77;;;23.80;40.00;;;27.77;26.47;101608.41;5132544;28;20051;-61
2021/06/02 08:49:52;;;;;;;1.13;0.90;;;23.80;40.00;;;27.77;26.46;101600.34;5133498;27;20521;-62
2021/06/02 08:52:18;;;;;;;6.25;1.95;;;23.80;39.70;;;27.70;26.49;101608.03;5115036;28;20050;-62
2021/06/02 08:54:43;;;;;;;0.82;0.70;;;23.80;39.80;;;27.73;26.63;101614.97;5132501;28;20129;-62
2021/06/02 08:57:10;;;;;;;1.13;0.90;;;23.80;39.90;;;27.71;26.51;101611.56;5131892;28;20047;-62
2021/06/02 08:59:37;;;;;;;1.02;0.80;;;23.80;39.70;;;27.68;26.51;101606.41;5115085;28;20511;-62
2021/06/02 09:02:05;;;;;;;0.93;0.93;;;23.80;39.80;;;27.70;26.68;101617.94;5114945;28;20070;-62
2021/06/02 09:04:33;;;;;;;0.93;0.90;;;23.80;40.70;;;27.70;26.36;101604.50;5114920;28;20054;-62
2021/06/02 09:07:03;;;;;;;0.80;0.80;;;23.80;39.80;;;27.64;26.72;101596.91;5132552;28;20043;-62
2021/06/02 09:09:29;;;;;;;1.13;1.00;;;23.80;40.40;;;27.66;26.52;101603.00;5115391;28;20387;-62
2021/06/02 09:11:55;;;;;;;0.90;0.80;;;23.70;39.80;;;27.66;26.51;101608.38;5114623;28;20055;-62
2021/06/02 09:14:38;;;;;;;0.98;0.90;;;23.80;39.70;;;27.64;26.53;101599.59;5115292;28;20096;-62
2021/06/02 09:17:09;;;;;;;0.80;0.80;;;23.80;39.70;;;27.68;26.52;101609.09;5114455;28;20134;-62
2021/06/02 09:19:49;;;;;;;1.05;1.00;;;23.80;39.80;;;27.63;26.59;101604.13;5115151;28;20039;-62
2021/06/02 09:22:20;;;;;;;1.95;1.10;;;23.80;39.70;;;27.67;26.35;101602.03;5114652;28;20047;-62
2021/06/02 09:24:58;;;;;;;1.35;1.00;;;23.80;40.10;;;27.67;26.34;101600.19;5115239;28;20083;-62
2021/06/02 09:27:48;;;;;;;1.10;1.00;;;23.90;39.50;;;27.71;26.59;101603.50;5114351;28;20081;-62
2021/06/02 09:30:24;;;;;;;1.08;0.95;;;23.90;39.50;;;27.71;26.53;101603.50;5133041;27;20100;-62
2021/06/02 09:32:57;;;;;;;1.48;1.10;;;23.90;39.40;;;27.73;26.25;101601.53;5132028;28;20047;-62
2021/06/02 09:35:38;;;;;;;1.65;1.10;;;23.90;39.30;;;27.72;26.32;101591.78;5098943;28;20039;-62
2021/06/02 09:38:06;;;;;;;1.33;1.00;;;23.90;39.30;;;27.72;26.49;101602.53;5117850;28;20504;-62
2021/06/02 09:40:37;;;;;;;1.05;0.95;;;23.90;39.20;;;27.76;26.16;101608.50;5118121;28;20517;-62
2021/06/02 09:43:05;;;;;;;0.93;0.93;;;24.00;39.20;;;27.76;26.13;101606.66;5118166;28;20402;-62
2021/06/02 09:45:32;;;;;;;1.10;1.00;;;23.90;39.10;;;27.78;26.09;101609.22;5135406;28;20474;-62
2021/06/02 09:48:06;;;;;;;1.15;0.90;;;24.00;39.10;;;27.73;26.33;101601.53;5117983;28;20043;-62
2021/06/02 09:50:38;;;;;;;2.08;0.90;;;24.00;39.20;;;27.76;26.46;101603.97;5101223;28;20096;-62
2021/06/02 09:53:07;;;;;;;0.90;0.90;;;24.10;39.40;;;27.82;26.27;101597.28;5135106;28;20043;-62
2021/06/02 09:55:38;;;;;;;1.65;0.82;;;24.10;39.10;;;27.81;26.33;101592.88;5118061;28;20046;-62
2021/06/02 09:58:07;;;;;;;0.95;0.95;;;24.10;39.40;;;27.84;26.38;101598.00;5117837;28;20092;-62
2021/06/02 10:00:41;;;;;;;1.27;1.08;;;24.10;39.10;;;27.80;26.06;101592.03;5134822;28;20145;-62
2021/06/02 10:03:16;;;;;;;1.77;0.80;;;24.10;39.40;;;27.80;26.06;101600.09;5118018;28;20078;-62
2021/06/02 10:05:48;;;;;;;0.90;0.90;;;24.10;39.00;;;27.81;26.18;101599.09;5117538;28;20558;-62
2021/06/02 10:08:33;;;;;;;1.15;0.95;;;24.10;39.00;;;27.80;26.26;101594.72;5100745;28;20047;-62
2021/06/02 10:11:27;;;;;;;2.38;1.20;;;24.10;39.00;;;27.79;26.13;101603.75;5117562;28;20047;-62
2021/06/02 10:13:53;;;;;;;2.42;1.13;;;24.00;39.10;;;27.76;26.15;101581.63;5134774;28;20061;-62
2021/06/02 10:16:45;;;;;;;1.35;0.90;;;24.10;39.10;;;27.76;26.18;101593.22;5117728;28;20437;-62
2021/06/02 10:19:11;;;;;;;1.13;1.02;;;24.00;39.10;;;27.76;26.29;101590.53;5118282;28;20062;-64
2021/06/02 10:21:52;;;;;;;0.80;0.80;;;24.00;39.10;;;27.69;26.17;101586.66;5135850;28;20054;-64
2021/06/02 10:24:18;;;;;;;1.20;1.10;;;24.00;39.10;;;27.72;26.38;101595.31;5117815;28;20134;-62
2021/06/02 10:26:46;;;;;;;2.40;0.95;;;24.00;39.10;;;27.66;26.25;101581.50;5134366;28;20130;-63
2021/06/02 10:29:11;;;;;;;2.38;1.08;;;23.90;39.10;;;27.68;26.11;101587.63;5134660;28;20096;-62
2021/06/02 10:31:37;;;;;;;0.85;0.85;;;24.00;39.20;;;27.70;26.19;101591.06;5100250;28;20047;-62
2021/06/02 10:34:03;;;;;;;0.93;0.93;;;24.00;39.20;;;27.71;26.30;101585.53;5117277;28;20055;-63
2021/06/02 10:36:30;;;;;;;0.88;0.80;;;24.00;39.10;;;27.69;26.23;101583.97;5100364;28;20047;-63
2021/06/02 10:38:59;;;;;;;1.73;1.10;;;24.00;39.10;;;27.72;26.27;101589.94;5134497;28;20047;-62
2021/06/02 10:41:51;;;;;;;1.42;1.02;;;24.00;39.00;;;27.77;26.26;101599.47;5134246;27;20042;-62
2021/06/02 10:44:22;;;;;;;0.80;0.75;;;24.10;39.10;;;27.76;26.30;101582.50;5099937;28;20114;-62
2021/06/02 10:46:50;;;;;;;;;;;24.10;39.00;;;27.89;26.19;101585.91;5134221;27;20047;-62
2021/06/02 10:49:25;;;;;;;1.30;1.00;;;24.10;39.00;;;27.85;26.11;101581.75;5134387;28;20369;-63
2021/06/02 10:51:50;;;;;;;1.70;0.80;;;24.10;39.00;;;27.84;26.17;101581.88;5134437;28;20502;-62
2021/06/02 10:54:21;;;;;;;0.90;0.90;;;24.10;39.10;;;27.83;26.07;101577.47;5133949;28;20176;-62
2021/06/02 10:56:59;;;;;;;0.80;0.80;;;24.10;39.10;;;27.88;26.06;101586.91;5135484;28;20054;-62
2021/06/02 10:59:27;;;;;;;2.08;1.15;;;24.10;39.00;;;27.83;26.16;101585.53;5134596;28;20047;-62
2021/06/02 11:02:13;;;;;;;1.10;1.00;;;24.20;39.20;;;27.86;26.07;101578.06;5133995;28;20055;-62
2021/06/02 11:04:42;;;;;;;0.85;0.85;;;24.10;38.90;;;27.83;26.18;101558.66;5116321;28;20039;-62